sensor_id;sensor_type;location;lat;lon;timestamp;temperature;humidity
20829;DHT22;10575;50.124;8.582;2022-12-08T00:02:02;4.50;99.90
20829;DHT22;10575;50.124;8.582;2022-12-08T00:04:27;4.50;99.90
20829;DHT22;10575;50.124;8.582;2022-12-08T00:06:53;4.50;99.90
20829;DHT22;10575;50.124;8.582;2022-12-08T00:09:40;4.50;99.90
20829;DHT22;10575;50.124;8.582;2022-12-08T00:12:11;4.40;99.90
20829;DHT22;10575;50.124;8.582;2022-12-08T00:14:43;4.40;99.90
20829;DHT22;10575;50.124;8.582;2022-12-08T00:17:11;4.40;99.90
20829;DHT22;10575;50.124;8.582;2022-12-08T00:19:38;4.40;99.90
20829;DHT22;10575;50.124;8.582;2022-12-08T00:22:05;4.40;99.90
20829;DHT22;10575;50.124;8.582;2022-12-08T00:24:34;4.50;99.90
20829;DHT22;10575;50.124;8.582;2022-12-08T00:27:04;4.60;99.90
20829;DHT22;10575;50.124;8.582;2022-12-08T00:29:29;4.60;99.90
20829;DHT22;10575;50.124;8.582;2022-12-08T00:31:55;4.60;99.90
20829;DHT22;10575;50.124;8.582;2022-12-08T00:34:21;4.50;99.90
20829;DHT22;10575;50.124;8.582;2022-12-08T00:36:46;4.50;99.90
20829;DHT22;10575;50.124;8.582;2022-12-08T00:39:13;4.60;99.90
20829;DHT22;10575;50.124;8.582;2022-12-08T00:41:39;4.60;99.90
20829;DHT22;10575;50.124;8.582;2022-12-08T00:44:23;4.60;99.90
20829;DHT22;10575;50.124;8.582;2022-12-08T00:46:48;4.70;99.90
20829;DHT22;10575;50.124;8.582;2022-12-08T00:49:14;4.70;99.90
20829;DHT22;10575;50.124;8.582;2022-12-08T00:51:40;4.70;99.90
20829;DHT22;10575;50.124;8.582;2022-12-08T00:54:06;4.70;99.90
20829;DHT22;10575;50.124;8.582;2022-12-08T00:56:33;4.60;99.90
20829;DHT22;10575;50.124;8.582;2022-12-08T00:58:59;4.60;99.90
20829;DHT22;10575;50.124;8.582;2022-12-08T01:01:24;4.60;99.90
20829;DHT22;10575;50.124;8.582;2022-12-08T01:03:50;4.60;99.90
20829;DHT22;10575;50.124;8.582;2022-12-08T01:06:16;4.70;99.90
20829;DHT22;10575;50.124;8.582;2022-12-08T01:08:41;4.70;99.90
20829;DHT22;10575;50.124;8.582;2022-12-08T01:11:13;4.80;99.90
20829;DHT22;10575;50.124;8.582;2022-12-08T01:13:39;4.80;99.90
20829;DHT22;10575;50.124;8.582;2022-12-08T01:16:05;4.90;99.90
20829;DHT22;10575;50.124;8.582;2022-12-08T01:18:31;4.90;99.90
20829;DHT22;10575;50.124;8.582;2022-12-08T01:21:05;4.90;99.90
20829;DHT22;10575;50.124;8.582;2022-12-08T01:23:31;4.90;99.90
20829;DHT22;10575;50.124;8.582;2022-12-08T01:26:04;4.90;99.90
20829;DHT22;10575;50.124;8.582;2022-12-08T01:28:30;4.80;99.90
20829;DHT22;10575;50.124;8.582;2022-12-08T01:30:57;4.80;99.90
20829;DHT22;10575;50.124;8.582;2022-12-08T01:33:23;4.80;99.90
20829;DHT22;10575;50.124;8.582;2022-12-08T01:35:49;4.90;99.90
20829;DHT22;10575;50.124;8.582;2022-12-08T01:38:14;4.90;99.90
20829;DHT22;10575;50.124;8.582;2022-12-08T01:40:40;5.00;99.90
20829;DHT22;10575;50.124;8.582;2022-12-08T01:43:07;5.00;99.90
20829;DHT22;10575;50.124;8.582;2022-12-08T01:45:33;4.90;99.90
20829;DHT22;10575;50.124;8.582;2022-12-08T01:48:09;4.90;99.90
20829;DHT22;10575;50.124;8.582;2022-12-08T01:50:37;5.00;99.90
20829;DHT22;10575;50.124;8.582;2022-12-08T01:53:17;5.00;99.90
20829;DHT22;10575;50.124;8.582;2022-12-08T01:55:53;5.00;99.90
20829;DHT22;10575;50.124;8.582;2022-12-08T01:58:34;5.00;99.90
20829;DHT22;10575;50.124;8.582;2022-12-08T02:01:00;5.00;99.90
20829;DHT22;10575;50.124;8.582;2022-12-08T02:03:33;5.00;99.90
20829;DHT22;10575;50.124;8.582;2022-12-08T02:06:00;5.00;99.90
20829;DHT22;10575;50.124;8.582;2022-12-08T02:08:26;5.10;99.90
20829;DHT22;10575;50.124;8.582;2022-12-08T02:10:52;5.00;99.90
20829;DHT22;10575;50.124;8.582;2022-12-08T02:13:19;5.10;99.90
20829;DHT22;10575;50.124;8.582;2022-12-08T02:18:59;5.00;99.90
20829;DHT22;10575;50.124;8.582;2022-12-08T02:24:32;5.00;99.90
20829;DHT22;10575;50.124;8.582;2022-12-08T02:29:59;5.00;99.90
20829;DHT22;10575;50.124;8.582;2022-12-08T02:35:22;5.00;99.90
20829;DHT22;10575;50.124;8.582;2022-12-08T02:37:59;5.00;99.90
20829;DHT22;10575;50.124;8.582;2022-12-08T02:43:10;4.90;99.90
20829;DHT22;10575;50.124;8.582;2022-12-08T02:45:48;4.90;99.90
20829;DHT22;10575;50.124;8.582;2022-12-08T02:48:15;5.00;99.90
20829;DHT22;10575;50.124;8.582;2022-12-08T02:50:40;4.90;99.90
20829;DHT22;10575;50.124;8.582;2022-12-08T02:53:07;4.90;99.90
20829;DHT22;10575;50.124;8.582;2022-12-08T02:58:49;5.10;99.90
20829;DHT22;10575;50.124;8.582;2022-12-08T03:01:50;5.10;99.90
20829;DHT22;10575;50.124;8.582;2022-12-08T03:04:21;5.10;99.90
20829;DHT22;10575;50.124;8.582;2022-12-08T03:07:30;5.10;99.90
20829;DHT22;10575;50.124;8.582;2022-12-08T03:10:12;5.10;99.90
20829;DHT22;10575;50.124;8.582;2022-12-08T03:12:44;5.10;99.90
20829;DHT22;10575;50.124;8.582;2022-12-08T03:15:15;5.10;99.90
20829;DHT22;10575;50.124;8.582;2022-12-08T03:17:45;5.10;99.90
20829;DHT22;10575;50.124;8.582;2022-12-08T03:20:15;5.10;99.90
20829;DHT22;10575;50.124;8.582;2022-12-08T03:22:43;5.10;99.90
20829;DHT22;10575;50.124;8.582;2022-12-08T03:25:13;5.10;99.90
20829;DHT22;10575;50.124;8.582;2022-12-08T03:27:39;5.10;99.90
20829;DHT22;10575;50.124;8.582;2022-12-08T03:30:06;5.20;99.90
20829;DHT22;10575;50.124;8.582;2022-12-08T03:35:25;5.10;99.90
20829;DHT22;10575;50.124;8.582;2022-12-08T03:38:01;5.10;99.90
20829;DHT22;10575;50.124;8.582;2022-12-08T03:40:27;5.10;99.90
20829;DHT22;10575;50.124;8.582;2022-12-08T03:42:53;5.10;99.90
20829;DHT22;10575;50.124;8.582;2022-12-08T03:45:18;5.10;99.90
20829;DHT22;10575;50.124;8.582;2022-12-08T03:47:43;5.10;99.90
20829;DHT22;10575;50.124;8.582;2022-12-08T03:50:10;5.00;99.90
20829;DHT22;10575;50.124;8.582;2022-12-08T03:52:35;5.00;99.90
20829;DHT22;10575;50.124;8.582;2022-12-08T03:55:01;5.10;99.90
20829;DHT22;10575;50.124;8.582;2022-12-08T03:57:27;5.10;99.90
20829;DHT22;10575;50.124;8.582;2022-12-08T03:59:52;5.00;99.90
20829;DHT22;10575;50.124;8.582;2022-12-08T04:02:18;5.00;99.90
20829;DHT22;10575;50.124;8.582;2022-12-08T04:04:44;5.00;99.90
20829;DHT22;10575;50.124;8.582;2022-12-08T04:07:09;5.00;99.90
20829;DHT22;10575;50.124;8.582;2022-12-08T04:09:34;5.00;99.90
20829;DHT22;10575;50.124;8.582;2022-12-08T04:12:00;5.00;99.90
20829;DHT22;10575;50.124;8.582;2022-12-08T04:14:25;5.00;99.90
20829;DHT22;10575;50.124;8.582;2022-12-08T04:16:51;5.00;99.90
20829;DHT22;10575;50.124;8.582;2022-12-08T04:19:16;5.00;99.90
20829;DHT22;10575;50.124;8.582;2022-12-08T04:21:42;5.00;99.90
20829;DHT22;10575;50.124;8.582;2022-12-08T04:24:08;5.00;99.90
20829;DHT22;10575;50.124;8.582;2022-12-08T04:26:34;5.10;99.90
20829;DHT22;10575;50.124;8.582;2022-12-08T04:28:59;5.10;99.90
20829;DHT22;10575;50.124;8.582;2022-12-08T04:31:25;5.10;99.90
20829;DHT22;10575;50.124;8.582;2022-12-08T04:33:50;5.10;99.90
20829;DHT22;10575;50.124;8.582;2022-12-08T04:36:16;5.10;99.90
20829;DHT22;10575;50.124;8.582;2022-12-08T04:38:41;5.10;99.90
20829;DHT22;10575;50.124;8.582;2022-12-08T04:41:07;5.10;99.90
20829;DHT22;10575;50.124;8.582;2022-12-08T04:43:32;5.10;99.90
20829;DHT22;10575;50.124;8.582;2022-12-08T04:45:58;5.10;99.90
20829;DHT22;10575;50.124;8.582;2022-12-08T04:48:23;5.10;99.90
20829;DHT22;10575;50.124;8.582;2022-12-08T04:50:49;5.10;99.90
20829;DHT22;10575;50.124;8.582;2022-12-08T04:53:16;5.10;99.90
20829;DHT22;10575;50.124;8.582;2022-12-08T04:55:43;5.10;99.90
20829;DHT22;10575;50.124;8.582;2022-12-08T04:58:16;5.10;99.90
20829;DHT22;10575;50.124;8.582;2022-12-08T05:00:42;5.10;99.90
20829;DHT22;10575;50.124;8.582;2022-12-08T05:03:08;5.10;99.90
20829;DHT22;10575;50.124;8.582;2022-12-08T05:05:34;5.10;99.90
20829;DHT22;10575;50.124;8.582;2022-12-08T05:07:59;5.10;99.90
20829;DHT22;10575;50.124;8.582;2022-12-08T05:10:25;5.10;99.90
20829;DHT22;10575;50.124;8.582;2022-12-08T05:12:51;5.10;99.90
20829;DHT22;10575;50.124;8.582;2022-12-08T05:15:16;5.10;99.90
20829;DHT22;10575;50.124;8.582;2022-12-08T05:17:42;5.10;99.90
20829;DHT22;10575;50.124;8.582;2022-12-08T05:20:08;5.10;99.90
20829;DHT22;10575;50.124;8.582;2022-12-08T05:22:33;5.10;99.90
20829;DHT22;10575;50.124;8.582;2022-12-08T05:24:59;5.10;99.90
20829;DHT22;10575;50.124;8.582;2022-12-08T05:27:24;5.10;99.90
20829;DHT22;10575;50.124;8.582;2022-12-08T05:29:50;5.00;99.90
20829;DHT22;10575;50.124;8.582;2022-12-08T05:32:15;5.10;99.90
20829;DHT22;10575;50.124;8.582;2022-12-08T05:34:41;5.10;99.90
20829;DHT22;10575;50.124;8.582;2022-12-08T05:37:07;5.10;99.90
20829;DHT22;10575;50.124;8.582;2022-12-08T05:39:32;5.10;99.90
20829;DHT22;10575;50.124;8.582;2022-12-08T05:41:58;5.00;99.90
20829;DHT22;10575;50.124;8.582;2022-12-08T05:44:24;5.00;99.90
20829;DHT22;10575;50.124;8.582;2022-12-08T05:46:50;5.00;99.90
20829;DHT22;10575;50.124;8.582;2022-12-08T05:49:15;5.00;99.90
20829;DHT22;10575;50.124;8.582;2022-12-08T05:51:41;5.00;99.90
20829;DHT22;10575;50.124;8.582;2022-12-08T05:54:07;5.00;99.90
20829;DHT22;10575;50.124;8.582;2022-12-08T05:56:32;5.00;99.90
20829;DHT22;10575;50.124;8.582;2022-12-08T05:58:58;4.90;99.90
20829;DHT22;10575;50.124;8.582;2022-12-08T06:01:29;5.00;99.90
20829;DHT22;10575;50.124;8.582;2022-12-08T06:03:56;5.00;99.90
20829;DHT22;10575;50.124;8.582;2022-12-08T06:06:22;4.90;99.90
20829;DHT22;10575;50.124;8.582;2022-12-08T06:08:48;4.90;99.90
20829;DHT22;10575;50.124;8.582;2022-12-08T06:11:19;4.80;99.90
20829;DHT22;10575;50.124;8.582;2022-12-08T06:13:45;4.80;99.90
20829;DHT22;10575;50.124;8.582;2022-12-08T06:16:10;4.80;99.90
20829;DHT22;10575;50.124;8.582;2022-12-08T06:18:36;4.90;99.90
20829;DHT22;10575;50.124;8.582;2022-12-08T06:21:07;4.90;99.90
20829;DHT22;10575;50.124;8.582;2022-12-08T06:23:33;5.00;99.90
20829;DHT22;10575;50.124;8.582;2022-12-08T06:26:03;5.00;99.90
20829;DHT22;10575;50.124;8.582;2022-12-08T06:28:29;5.00;99.90
20829;DHT22;10575;50.124;8.582;2022-12-08T06:30:55;5.00;99.90
20829;DHT22;10575;50.124;8.582;2022-12-08T06:33:21;5.00;99.90
20829;DHT22;10575;50.124;8.582;2022-12-08T06:35:47;5.10;99.90
20829;DHT22;10575;50.124;8.582;2022-12-08T06:38:12;5.20;99.90
20829;DHT22;10575;50.124;8.582;2022-12-08T06:40:38;5.20;99.90
20829;DHT22;10575;50.124;8.582;2022-12-08T06:43:04;5.20;99.90
20829;DHT22;10575;50.124;8.582;2022-12-08T06:45:29;5.20;99.90
20829;DHT22;10575;50.124;8.582;2022-12-08T06:47:55;5.20;99.90
20829;DHT22;10575;50.124;8.582;2022-12-08T06:50:20;5.20;99.90
20829;DHT22;10575;50.124;8.582;2022-12-08T06:52:46;5.10;99.90
20829;DHT22;10575;50.124;8.582;2022-12-08T06:55:11;5.00;99.90
20829;DHT22;10575;50.124;8.582;2022-12-08T06:57:37;5.00;99.90
20829;DHT22;10575;50.124;8.582;2022-12-08T07:00:04;5.10;99.90
20829;DHT22;10575;50.124;8.582;2022-12-08T07:02:29;5.10;99.90
20829;DHT22;10575;50.124;8.582;2022-12-08T07:04:55;5.00;99.90
20829;DHT22;10575;50.124;8.582;2022-12-08T07:07:21;5.00;99.90
20829;DHT22;10575;50.124;8.582;2022-12-08T07:09:46;4.90;99.90
20829;DHT22;10575;50.124;8.582;2022-12-08T07:12:12;4.90;99.90
20829;DHT22;10575;50.124;8.582;2022-12-08T07:14:37;5.00;99.90
20829;DHT22;10575;50.124;8.582;2022-12-08T07:17:03;4.90;99.90
20829;DHT22;10575;50.124;8.582;2022-12-08T07:19:28;4.90;99.90
20829;DHT22;10575;50.124;8.582;2022-12-08T07:21:54;4.90;99.90
20829;DHT22;10575;50.124;8.582;2022-12-08T07:24:19;4.90;99.90
20829;DHT22;10575;50.124;8.582;2022-12-08T07:26:45;4.90;99.90
20829;DHT22;10575;50.124;8.582;2022-12-08T07:29:10;5.00;99.90
20829;DHT22;10575;50.124;8.582;2022-12-08T07:31:36;4.90;99.90
20829;DHT22;10575;50.124;8.582;2022-12-08T07:34:01;4.90;99.90
20829;DHT22;10575;50.124;8.582;2022-12-08T07:36:27;4.90;99.90
20829;DHT22;10575;50.124;8.582;2022-12-08T07:38:53;4.80;99.90
20829;DHT22;10575;50.124;8.582;2022-12-08T07:41:21;4.80;99.90
20829;DHT22;10575;50.124;8.582;2022-12-08T07:43:47;4.70;99.90
20829;DHT22;10575;50.124;8.582;2022-12-08T07:46:15;4.70;99.90
20829;DHT22;10575;50.124;8.582;2022-12-08T07:48:41;4.80;99.90
20829;DHT22;10575;50.124;8.582;2022-12-08T07:51:07;4.80;99.90
20829;DHT22;10575;50.124;8.582;2022-12-08T07:53:33;4.90;99.90
20829;DHT22;10575;50.124;8.582;2022-12-08T07:55:59;5.00;99.90
20829;DHT22;10575;50.124;8.582;2022-12-08T07:58:25;5.00;99.90
20829;DHT22;10575;50.124;8.582;2022-12-08T08:00:51;4.90;99.90
20829;DHT22;10575;50.124;8.582;2022-12-08T08:03:17;4.90;99.90
20829;DHT22;10575;50.124;8.582;2022-12-08T08:05:42;4.90;99.90
20829;DHT22;10575;50.124;8.582;2022-12-08T08:08:09;4.90;99.90
20829;DHT22;10575;50.124;8.582;2022-12-08T08:10:34;4.90;99.90
20829;DHT22;10575;50.124;8.582;2022-12-08T08:13:00;4.90;99.90
20829;DHT22;10575;50.124;8.582;2022-12-08T08:15:26;4.90;99.90
20829;DHT22;10575;50.124;8.582;2022-12-08T08:17:52;4.90;99.90
20829;DHT22;10575;50.124;8.582;2022-12-08T08:20:18;4.90;99.90
20829;DHT22;10575;50.124;8.582;2022-12-08T08:22:47;5.00;99.90
20829;DHT22;10575;50.124;8.582;2022-12-08T08:25:14;5.00;99.90
20829;DHT22;10575;50.124;8.582;2022-12-08T08:27:41;5.10;99.90
20829;DHT22;10575;50.124;8.582;2022-12-08T08:30:09;5.00;99.90
20829;DHT22;10575;50.124;8.582;2022-12-08T08:32:35;5.00;99.90
20829;DHT22;10575;50.124;8.582;2022-12-08T08:35:01;5.00;99.90
20829;DHT22;10575;50.124;8.582;2022-12-08T08:37:27;5.10;99.90
20829;DHT22;10575;50.124;8.582;2022-12-08T08:39:53;5.10;99.90
20829;DHT22;10575;50.124;8.582;2022-12-08T08:42:19;5.10;99.90
20829;DHT22;10575;50.124;8.582;2022-12-08T08:44:44;5.10;99.90
20829;DHT22;10575;50.124;8.582;2022-12-08T08:47:10;5.10;99.90
20829;DHT22;10575;50.124;8.582;2022-12-08T08:49:36;5.20;99.90
20829;DHT22;10575;50.124;8.582;2022-12-08T08:52:03;5.30;99.90
20829;DHT22;10575;50.124;8.582;2022-12-08T08:54:29;5.30;99.90
20829;DHT22;10575;50.124;8.582;2022-12-08T08:56:56;5.40;99.90
20829;DHT22;10575;50.124;8.582;2022-12-08T08:59:22;5.50;99.90
20829;DHT22;10575;50.124;8.582;2022-12-08T09:01:47;5.60;99.90
20829;DHT22;10575;50.124;8.582;2022-12-08T09:04:13;5.60;99.90
20829;DHT22;10575;50.124;8.582;2022-12-08T09:06:38;5.60;99.90
20829;DHT22;10575;50.124;8.582;2022-12-08T09:09:04;5.60;99.90
20829;DHT22;10575;50.124;8.582;2022-12-08T09:11:31;5.60;99.90
20829;DHT22;10575;50.124;8.582;2022-12-08T09:13:56;5.70;99.90
20829;DHT22;10575;50.124;8.582;2022-12-08T09:16:22;5.70;99.90
20829;DHT22;10575;50.124;8.582;2022-12-08T09:18:48;5.70;99.90
20829;DHT22;10575;50.124;8.582;2022-12-08T09:21:16;5.60;99.90
20829;DHT22;10575;50.124;8.582;2022-12-08T09:23:45;5.60;99.90
20829;DHT22;10575;50.124;8.582;2022-12-08T09:26:10;5.50;99.90
20829;DHT22;10575;50.124;8.582;2022-12-08T09:28:36;5.40;99.90
20829;DHT22;10575;50.124;8.582;2022-12-08T09:31:02;5.40;99.90
20829;DHT22;10575;50.124;8.582;2022-12-08T09:33:28;5.50;99.90
20829;DHT22;10575;50.124;8.582;2022-12-08T09:35:54;5.40;99.90
20829;DHT22;10575;50.124;8.582;2022-12-08T09:38:20;5.40;99.90
20829;DHT22;10575;50.124;8.582;2022-12-08T09:40:51;5.50;99.90
20829;DHT22;10575;50.124;8.582;2022-12-08T09:45:43;5.70;99.90
20829;DHT22;10575;50.124;8.582;2022-12-08T09:48:18;5.80;99.90
20829;DHT22;10575;50.124;8.582;2022-12-08T09:50:54;5.90;99.90
20829;DHT22;10575;50.124;8.582;2022-12-08T09:53:38;5.90;99.90
20829;DHT22;10575;50.124;8.582;2022-12-08T09:56:16;5.90;99.90
20829;DHT22;10575;50.124;8.582;2022-12-08T09:58:53;5.80;99.90
20829;DHT22;10575;50.124;8.582;2022-12-08T10:01:21;5.90;99.90
20829;DHT22;10575;50.124;8.582;2022-12-08T10:03:48;6.00;99.90
20829;DHT22;10575;50.124;8.582;2022-12-08T10:06:31;5.90;99.90
20829;DHT22;10575;50.124;8.582;2022-12-08T10:11:59;6.00;99.90
20829;DHT22;10575;50.124;8.582;2022-12-08T10:17:19;6.00;99.90
20829;DHT22;10575;50.124;8.582;2022-12-08T10:19:45;6.00;99.90
20829;DHT22;10575;50.124;8.582;2022-12-08T10:22:23;6.00;99.90
20829;DHT22;10575;50.124;8.582;2022-12-08T10:24:59;5.90;99.90
20829;DHT22;10575;50.124;8.582;2022-12-08T10:27:25;5.90;99.90
20829;DHT22;10575;50.124;8.582;2022-12-08T10:29:51;5.90;99.90
20829;DHT22;10575;50.124;8.582;2022-12-08T10:32:23;5.90;99.90
20829;DHT22;10575;50.124;8.582;2022-12-08T10:35:07;5.90;99.90
20829;DHT22;10575;50.124;8.582;2022-12-08T10:37:33;6.00;99.90
20829;DHT22;10575;50.124;8.582;2022-12-08T10:40:12;6.10;99.90
20829;DHT22;10575;50.124;8.582;2022-12-08T10:42:46;6.10;99.90
20829;DHT22;10575;50.124;8.582;2022-12-08T10:50:42;6.10;99.90
20829;DHT22;10575;50.124;8.582;2022-12-08T10:53:13;6.10;99.90
20829;DHT22;10575;50.124;8.582;2022-12-08T10:58:33;6.20;99.90
20829;DHT22;10575;50.124;8.582;2022-12-08T11:01:22;6.30;99.90
20829;DHT22;10575;50.124;8.582;2022-12-08T11:03:59;6.20;99.90
20829;DHT22;10575;50.124;8.582;2022-12-08T11:08:54;6.30;99.90
20829;DHT22;10575;50.124;8.582;2022-12-08T11:11:22;6.30;99.90
20829;DHT22;10575;50.124;8.582;2022-12-08T11:14:06;6.40;99.90
20829;DHT22;10575;50.124;8.582;2022-12-08T11:16:32;6.40;99.90
20829;DHT22;10575;50.124;8.582;2022-12-08T11:18:58;6.40;99.90
20829;DHT22;10575;50.124;8.582;2022-12-08T11:21:35;6.40;99.90
20829;DHT22;10575;50.124;8.582;2022-12-08T11:26:38;6.50;99.90
20829;DHT22;10575;50.124;8.582;2022-12-08T11:29:08;6.40;99.90
20829;DHT22;10575;50.124;8.582;2022-12-08T11:31:44;6.40;99.90
20829;DHT22;10575;50.124;8.582;2022-12-08T11:34:19;6.30;99.90
20829;DHT22;10575;50.124;8.582;2022-12-08T11:36:48;6.20;99.90
20829;DHT22;10575;50.124;8.582;2022-12-08T11:39:15;6.30;99.90
20829;DHT22;10575;50.124;8.582;2022-12-08T11:41:43;6.30;99.90
20829;DHT22;10575;50.124;8.582;2022-12-08T11:44:32;6.30;99.90
20829;DHT22;10575;50.124;8.582;2022-12-08T11:47:05;6.40;99.90
20829;DHT22;10575;50.124;8.582;2022-12-08T11:49:37;6.40;99.90
20829;DHT22;10575;50.124;8.582;2022-12-08T11:52:17;6.50;99.90
20829;DHT22;10575;50.124;8.582;2022-12-08T11:54:56;6.50;99.90
20829;DHT22;10575;50.124;8.582;2022-12-08T11:57:26;6.60;99.90
20829;DHT22;10575;50.124;8.582;2022-12-08T11:59:55;6.80;99.90
20829;DHT22;10575;50.124;8.582;2022-12-08T12:02:43;6.90;99.90
20829;DHT22;10575;50.124;8.582;2022-12-08T12:05:29;6.90;99.90
20829;DHT22;10575;50.124;8.582;2022-12-08T12:11:57;6.80;99.90
20829;DHT22;10575;50.124;8.582;2022-12-08T12:17:57;6.60;99.90
20829;DHT22;10575;50.124;8.582;2022-12-08T12:20:40;6.40;99.90
20829;DHT22;10575;50.124;8.582;2022-12-08T12:23:35;6.40;99.90
20829;DHT22;10575;50.124;8.582;2022-12-08T12:26:07;6.50;99.90
20829;DHT22;10575;50.124;8.582;2022-12-08T12:28:42;6.60;99.90
20829;DHT22;10575;50.124;8.582;2022-12-08T12:31:12;6.50;99.90
20829;DHT22;10575;50.124;8.582;2022-12-08T12:33:41;6.50;99.90
20829;DHT22;10575;50.124;8.582;2022-12-08T12:36:08;6.40;99.90
20829;DHT22;10575;50.124;8.582;2022-12-08T12:38:41;6.40;99.90
20829;DHT22;10575;50.124;8.582;2022-12-08T12:41:47;6.40;99.90
20829;DHT22;10575;50.124;8.582;2022-12-08T12:57:24;6.40;99.90
20829;DHT22;10575;50.124;8.582;2022-12-08T13:08:03;6.90;99.90
20829;DHT22;10575;50.124;8.582;2022-12-08T13:10:36;6.90;99.90
20829;DHT22;10575;50.124;8.582;2022-12-08T13:13:16;6.90;99.90
20829;DHT22;10575;50.124;8.582;2022-12-08T13:15:52;6.90;99.90
20829;DHT22;10575;50.124;8.582;2022-12-08T13:34:56;6.80;99.90
20829;DHT22;10575;50.124;8.582;2022-12-08T13:37:24;6.80;99.90
20829;DHT22;10575;50.124;8.582;2022-12-08T13:40:07;6.70;99.90
20829;DHT22;10575;50.124;8.582;2022-12-08T13:45:15;6.70;99.90
20829;DHT22;10575;50.124;8.582;2022-12-08T13:50:45;6.40;99.90
20829;DHT22;10575;50.124;8.582;2022-12-08T13:53:19;6.50;99.90
20829;DHT22;10575;50.124;8.582;2022-12-08T13:55:48;6.50;99.90
20829;DHT22;10575;50.124;8.582;2022-12-08T13:58:17;6.50;99.90
20829;DHT22;10575;50.124;8.582;2022-12-08T14:00:51;6.40;99.90
20829;DHT22;10575;50.124;8.582;2022-12-08T14:03:17;6.30;99.90
20829;DHT22;10575;50.124;8.582;2022-12-08T14:05:42;6.20;99.90
20829;DHT22;10575;50.124;8.582;2022-12-08T14:08:32;6.20;99.90
20829;DHT22;10575;50.124;8.582;2022-12-08T14:11:01;6.20;99.90
20829;DHT22;10575;50.124;8.582;2022-12-08T14:13:29;6.20;99.90
20829;DHT22;10575;50.124;8.582;2022-12-08T14:15:55;6.20;99.90
20829;DHT22;10575;50.124;8.582;2022-12-08T14:18:29;6.20;99.90
20829;DHT22;10575;50.124;8.582;2022-12-08T14:21:10;6.10;99.90
20829;DHT22;10575;50.124;8.582;2022-12-08T14:23:36;5.90;99.90
20829;DHT22;10575;50.124;8.582;2022-12-08T14:26:05;5.90;99.90
20829;DHT22;10575;50.124;8.582;2022-12-08T14:28:32;5.90;99.90
20829;DHT22;10575;50.124;8.582;2022-12-08T14:30:58;6.00;99.90
20829;DHT22;10575;50.124;8.582;2022-12-08T14:33:24;6.00;99.90
20829;DHT22;10575;50.124;8.582;2022-12-08T14:35:53;6.00;99.90
20829;DHT22;10575;50.124;8.582;2022-12-08T14:38:21;6.00;99.90
20829;DHT22;10575;50.124;8.582;2022-12-08T14:40:49;6.00;99.90
20829;DHT22;10575;50.124;8.582;2022-12-08T14:43:26;6.00;99.90
20829;DHT22;10575;50.124;8.582;2022-12-08T14:45:54;6.10;99.90
20829;DHT22;10575;50.124;8.582;2022-12-08T14:51:04;6.30;99.90
20829;DHT22;10575;50.124;8.582;2022-12-08T14:56:32;6.10;99.90
20829;DHT22;10575;50.124;8.582;2022-12-08T14:59:30;6.10;99.90
20829;DHT22;10575;50.124;8.582;2022-12-08T15:02:24;6.20;99.90
20829;DHT22;10575;50.124;8.582;2022-12-08T15:04:57;6.10;99.90
20829;DHT22;10575;50.124;8.582;2022-12-08T15:07:27;6.10;99.90
20829;DHT22;10575;50.124;8.582;2022-12-08T15:10:27;6.10;99.90
20829;DHT22;10575;50.124;8.582;2022-12-08T15:13:27;6.10;99.90
20829;DHT22;10575;50.124;8.582;2022-12-08T15:18:37;6.20;99.90
20829;DHT22;10575;50.124;8.582;2022-12-08T15:21:05;6.20;99.90
20829;DHT22;10575;50.124;8.582;2022-12-08T15:23:40;6.20;99.90
20829;DHT22;10575;50.124;8.582;2022-12-08T15:26:07;6.20;99.90
20829;DHT22;10575;50.124;8.582;2022-12-08T15:28:33;6.20;99.90
20829;DHT22;10575;50.124;8.582;2022-12-08T15:30:59;6.20;99.90
20829;DHT22;10575;50.124;8.582;2022-12-08T15:33:25;6.00;99.90
20829;DHT22;10575;50.124;8.582;2022-12-08T15:35:50;5.90;99.90
20829;DHT22;10575;50.124;8.582;2022-12-08T15:38:22;5.80;99.90
20829;DHT22;10575;50.124;8.582;2022-12-08T15:40:49;5.70;99.90
20829;DHT22;10575;50.124;8.582;2022-12-08T15:43:15;5.70;99.90
20829;DHT22;10575;50.124;8.582;2022-12-08T15:45:41;5.70;99.90
20829;DHT22;10575;50.124;8.582;2022-12-08T15:48:08;5.70;99.90
20829;DHT22;10575;50.124;8.582;2022-12-08T15:50:36;5.60;99.90
20829;DHT22;10575;50.124;8.582;2022-12-08T15:53:01;5.60;99.90
20829;DHT22;10575;50.124;8.582;2022-12-08T15:55:27;5.60;99.90
20829;DHT22;10575;50.124;8.582;2022-12-08T15:57:53;5.60;99.90
20829;DHT22;10575;50.124;8.582;2022-12-08T16:02:47;5.50;99.90
20829;DHT22;10575;50.124;8.582;2022-12-08T16:05:13;5.30;99.90
20829;DHT22;10575;50.124;8.582;2022-12-08T16:07:39;5.30;99.90
20829;DHT22;10575;50.124;8.582;2022-12-08T16:10:05;5.40;99.90
20829;DHT22;10575;50.124;8.582;2022-12-08T16:12:31;5.40;99.90
20829;DHT22;10575;50.124;8.582;2022-12-08T16:15:30;5.50;99.90
20829;DHT22;10575;50.124;8.582;2022-12-08T16:17:56;5.50;99.90
20829;DHT22;10575;50.124;8.582;2022-12-08T16:20:23;5.40;99.90
20829;DHT22;10575;50.124;8.582;2022-12-08T16:22:49;5.30;99.90
20829;DHT22;10575;50.124;8.582;2022-12-08T16:25:15;5.30;99.90
20829;DHT22;10575;50.124;8.582;2022-12-08T16:27:41;5.30;99.90
20829;DHT22;10575;50.124;8.582;2022-12-08T16:30:15;5.50;99.90
20829;DHT22;10575;50.124;8.582;2022-12-08T16:32:41;5.50;99.90
20829;DHT22;10575;50.124;8.582;2022-12-08T16:35:07;5.60;99.90
20829;DHT22;10575;50.124;8.582;2022-12-08T16:37:32;5.70;99.90
20829;DHT22;10575;50.124;8.582;2022-12-08T16:39:59;5.60;99.90
20829;DHT22;10575;50.124;8.582;2022-12-08T16:42:30;5.60;99.90
20829;DHT22;10575;50.124;8.582;2022-12-08T16:47:36;5.50;99.90
20829;DHT22;10575;50.124;8.582;2022-12-08T16:50:13;5.50;99.90
20829;DHT22;10575;50.124;8.582;2022-12-08T16:52:38;5.50;99.90
20829;DHT22;10575;50.124;8.582;2022-12-08T16:55:09;5.40;99.90
20829;DHT22;10575;50.124;8.582;2022-12-08T16:57:35;5.30;99.90
20829;DHT22;10575;50.124;8.582;2022-12-08T17:00:00;5.20;99.90
20829;DHT22;10575;50.124;8.582;2022-12-08T17:02:26;5.30;99.90
20829;DHT22;10575;50.124;8.582;2022-12-08T17:04:51;5.40;99.90
20829;DHT22;10575;50.124;8.582;2022-12-08T17:07:17;5.40;99.90
20829;DHT22;10575;50.124;8.582;2022-12-08T17:09:43;5.40;99.90
20829;DHT22;10575;50.124;8.582;2022-12-08T17:12:08;5.40;99.90
20829;DHT22;10575;50.124;8.582;2022-12-08T17:14:35;5.40;99.90
20829;DHT22;10575;50.124;8.582;2022-12-08T17:17:00;5.20;99.90
20829;DHT22;10575;50.124;8.582;2022-12-08T17:19:26;5.20;99.90
20829;DHT22;10575;50.124;8.582;2022-12-08T17:21:51;5.10;99.90
20829;DHT22;10575;50.124;8.582;2022-12-08T17:24:17;5.10;99.90
20829;DHT22;10575;50.124;8.582;2022-12-08T17:26:42;5.10;99.90
20829;DHT22;10575;50.124;8.582;2022-12-08T17:29:08;5.00;99.90
20829;DHT22;10575;50.124;8.582;2022-12-08T17:31:33;5.00;99.90
20829;DHT22;10575;50.124;8.582;2022-12-08T17:34:04;5.10;99.90
20829;DHT22;10575;50.124;8.582;2022-12-08T17:36:33;5.20;99.90
20829;DHT22;10575;50.124;8.582;2022-12-08T17:38:59;5.10;99.90
20829;DHT22;10575;50.124;8.582;2022-12-08T17:41:25;5.00;99.90
20829;DHT22;10575;50.124;8.582;2022-12-08T17:43:51;5.00;99.90